createdAt,value
2018-07-20T00:01:49.018Z,11.37
2018-07-20T00:04:18.080Z,12.33
2018-07-20T00:09:22.849Z,9.50
2018-07-20T00:14:27.617Z,9.67
2018-07-20T00:16:56.686Z,9.00
2018-07-20T00:22:02.458Z,8.90
2018-07-20T00:24:31.521Z,10.33
2018-07-20T00:27:00.653Z,9.33
2018-07-20T00:29:31.716Z,11.32
2018-07-20T00:32:00.821Z,8.93
2018-07-20T00:34:30.823Z,8.30
2018-07-20T00:39:35.585Z,10.20
2018-07-20T00:42:04.671Z,10.65
2018-07-20T00:44:34.694Z,9.70
2018-07-20T00:47:03.762Z,9.70
2018-07-20T00:49:32.801Z,9.13
2018-07-20T00:52:02.816Z,8.83
2018-07-20T00:54:31.871Z,9.07
2018-07-20T00:57:00.937Z,8.67
2018-07-20T00:59:31.953Z,8.77
2018-07-20T01:02:01.029Z,9.07
2018-07-20T01:04:30.086Z,9.48
2018-07-20T01:06:59.237Z,8.03
2018-07-20T01:09:28.349Z,8.30
2018-07-20T01:11:57.389Z,9.45
2018-07-20T01:17:02.718Z,9.33
2018-07-20T01:19:32.775Z,9.40
2018-07-20T01:24:37.664Z,8.23
2018-07-20T01:27:07.699Z,7.90
2018-07-20T01:29:37.716Z,9.30
2018-07-20T01:32:06.782Z,9.33
2018-07-20T01:34:35.853Z,8.57
2018-07-20T01:37:04.975Z,8.33
2018-07-20T01:39:34.026Z,8.83
2018-07-20T01:44:38.800Z,8.93
2018-07-20T01:47:07.848Z,10.00
2018-07-20T01:49:36.906Z,9.50
2018-07-20T01:52:05.977Z,8.77
2018-07-20T01:57:10.737Z,9.17
2018-07-20T01:59:40.745Z,9.65
2018-07-20T02:02:10.757Z,9.30
2018-07-20T02:04:40.815Z,10.00
2018-07-20T02:07:09.911Z,9.20
2018-07-20T02:09:38.977Z,7.87
2018-07-20T02:14:10.665Z,9.80
2018-07-20T02:16:39.721Z,10.30
2018-07-20T02:19:09.685Z,11.70
2018-07-20T02:24:14.470Z,10.53
2018-07-20T02:26:43.545Z,9.95
2018-07-20T02:31:48.319Z,9.00
2018-07-20T02:34:18.242Z,9.95
2018-07-20T02:36:47.303Z,8.93
2018-07-20T02:39:17.342Z,8.93
2018-07-20T02:41:46.430Z,10.53
2018-07-20T02:44:15.471Z,9.30
2018-07-20T02:49:21.365Z,10.87
2018-07-20T02:51:52.446Z,10.73
2018-07-20T02:54:22.482Z,10.02
2018-07-20T02:59:27.265Z,10.63
2018-07-20T03:01:57.352Z,10.85
2018-07-20T03:04:26.413Z,9.83
2018-07-20T03:06:55.469Z,9.40
2018-07-20T03:09:24.538Z,14.23
2018-07-20T03:11:56.813Z,12.00
2018-07-20T03:14:25.868Z,10.53
2018-07-20T03:16:54.912Z,11.27
2018-07-20T03:19:23.983Z,10.80
2018-07-20T03:21:53.037Z,10.47
2018-07-20T03:24:22.154Z,10.07
2018-07-20T03:26:52.110Z,9.77
2018-07-20T03:29:22.189Z,9.47
2018-07-20T03:31:51.237Z,13.60
2018-07-20T03:34:20.293Z,14.13
2018-07-20T03:36:49.578Z,9.47
2018-07-20T03:39:18.639Z,10.10
2018-07-20T03:41:47.690Z,9.70
2018-07-20T03:46:52.522Z,9.48
2018-07-20T03:49:22.520Z,10.30
2018-07-20T03:51:51.579Z,8.93
2018-07-20T03:54:20.739Z,9.40
2018-07-20T03:56:49.761Z,10.32
2018-07-20T04:01:54.590Z,10.70
2018-07-20T04:04:24.601Z,10.20
2018-07-20T04:09:30.273Z,9.00
2018-07-20T04:11:59.321Z,11.90
2018-07-20T04:14:28.387Z,9.13
2018-07-20T04:16:57.633Z,10.60
2018-07-20T04:19:26.687Z,9.33
2018-07-20T04:21:55.737Z,12.18
2018-07-20T04:24:24.798Z,9.27
2018-07-20T04:29:29.637Z,11.40
2018-07-20T04:31:59.617Z,13.50
2018-07-20T04:34:30.837Z,11.43
2018-07-20T04:36:59.890Z,11.57
2018-07-20T04:39:28.978Z,10.70
2018-07-20T04:44:33.751Z,10.60
2018-07-20T04:47:02.818Z,9.77
2018-07-20T04:49:32.404Z,11.70
2018-07-20T04:52:01.506Z,9.52
2018-07-20T04:54:31.555Z,9.93
2018-07-20T04:57:04.546Z,10.70
2018-07-20T05:02:11.733Z,11.63
2018-07-20T05:04:41.920Z,12.93
2018-07-20T05:07:10.963Z,10.37
2018-07-20T05:09:40.079Z,9.90
2018-07-20T05:14:44.862Z,10.23
2018-07-20T05:17:14.204Z,12.30
2018-07-20T05:22:19.633Z,11.07
2018-07-20T05:24:49.777Z,11.20
2018-07-20T05:27:18.842Z,10.37
2018-07-20T05:29:48.851Z,15.03
2018-07-20T05:32:18.121Z,12.03
2018-07-20T05:34:47.322Z,10.40
2018-07-20T05:37:16.362Z,12.80
2018-07-20T05:39:46.366Z,12.63
2018-07-20T05:42:15.861Z,9.93
2018-07-20T05:49:57.059Z,15.13
2018-07-20T05:52:26.131Z,11.70
2018-07-20T05:57:40.039Z,12.57
2018-07-20T06:00:11.025Z,10.47
2018-07-20T06:02:40.099Z,10.80
2018-07-20T06:05:12.507Z,9.77
2018-07-20T06:10:17.353Z,12.30
2018-07-20T06:12:46.412Z,10.70
2018-07-20T06:15:15.479Z,11.45
2018-07-20T06:17:44.535Z,10.70
2018-07-20T06:20:13.596Z,10.57
2018-07-20T06:22:44.645Z,10.40
2018-07-20T06:25:22.324Z,11.73
2018-07-20T06:30:27.805Z,12.07
2018-07-20T06:33:02.342Z,9.57
2018-07-20T06:38:07.664Z,10.45
2018-07-20T06:40:36.769Z,10.27
2018-07-20T06:43:06.723Z,10.00
2018-07-20T06:45:35.786Z,8.63
2018-07-20T06:48:05.192Z,8.47
2018-07-20T06:50:34.252Z,8.57
2018-07-20T06:53:03.305Z,8.25
2018-07-20T06:58:08.097Z,7.60
2018-07-20T07:00:37.294Z,7.53
2018-07-20T07:08:17.905Z,7.60
2018-07-20T07:10:47.617Z,7.45
2018-07-20T07:13:16.832Z,6.80
2018-07-20T07:15:45.892Z,10.90
2018-07-20T07:18:15.913Z,7.23
2018-07-20T07:23:25.918Z,7.10
2018-07-20T07:25:55.908Z,6.93
2018-07-20T07:28:30.281Z,6.63
2018-07-20T07:30:59.347Z,6.27
2018-07-20T07:33:28.407Z,7.30
2018-07-20T07:35:59.444Z,6.40
2018-07-20T07:38:28.838Z,6.40
2018-07-20T07:43:33.726Z,9.23
2018-07-20T07:46:05.875Z,6.60
2018-07-20T07:48:35.018Z,7.70
2018-07-20T07:51:04.077Z,9.70
2018-07-20T07:53:33.330Z,7.73
2018-07-20T07:56:02.395Z,6.80
2018-07-20T08:01:07.566Z,10.10
2018-07-20T08:03:36.741Z,11.77
2018-07-20T08:06:09.526Z,6.10
2018-07-20T08:08:40.574Z,6.83
2018-07-20T08:11:09.659Z,11.30
2018-07-20T08:13:46.146Z,5.60
2018-07-20T08:18:51.012Z,9.60
2018-07-20T08:21:21.003Z,6.30
2018-07-20T08:23:51.592Z,6.53
2018-07-20T08:26:20.646Z,5.37
2018-07-20T08:31:26.849Z,5.90
2018-07-20T08:33:55.897Z,7.93
2018-07-20T08:36:25.837Z,8.27
2018-07-20T08:38:55.751Z,7.53
2018-07-20T08:41:24.807Z,10.10
2018-07-20T08:43:53.875Z,11.17
2018-07-20T08:46:24.150Z,9.40
2018-07-20T08:48:53.290Z,10.53
2018-07-20T08:51:22.315Z,7.03
2018-07-20T08:53:51.387Z,9.47
2018-07-20T08:56:20.767Z,13.93
2018-07-20T08:58:49.833Z,14.27
2018-07-20T09:01:19.856Z,27.57
2018-07-20T09:03:49.092Z,14.93
2018-07-20T09:06:18.349Z,9.80
2018-07-20T09:08:47.398Z,11.33
2018-07-20T09:11:16.453Z,20.03
2018-07-20T09:13:46.913Z,7.13
2018-07-20T09:18:52.066Z,9.93
2018-07-20T09:21:21.337Z,8.27
2018-07-20T09:23:54.344Z,9.40
2018-07-20T09:26:23.402Z,7.13
2018-07-20T09:28:52.443Z,8.93
2018-07-20T09:33:57.329Z,8.05
2018-07-20T09:36:26.741Z,6.93
2018-07-20T09:38:57.883Z,8.97
2018-07-20T09:41:26.914Z,6.67
2018-07-20T09:43:57.945Z,7.70
2018-07-20T09:46:27.016Z,7.50
2018-07-20T09:48:56.779Z,7.07
2018-07-20T09:51:25.802Z,8.00
2018-07-20T09:56:30.737Z,6.72
2018-07-20T09:58:59.783Z,6.25
2018-07-20T10:01:29.082Z,7.97
2018-07-20T10:03:58.296Z,5.63
2018-07-20T10:06:27.323Z,7.78
2018-07-20T10:11:32.184Z,6.82
2018-07-20T10:14:01.258Z,7.03
2018-07-20T10:16:31.015Z,6.53
2018-07-20T10:19:00.066Z,5.63
2018-07-20T10:21:29.098Z,5.43
2018-07-20T10:24:00.218Z,5.27
2018-07-20T10:26:29.405Z,6.93
2018-07-20T10:28:58.473Z,5.80
2018-07-20T10:31:28.432Z,6.10
2018-07-20T10:33:57.480Z,8.67
2018-07-20T10:36:27.689Z,5.27
2018-07-20T10:38:56.772Z,5.17
2018-07-20T10:41:25.838Z,5.30
2018-07-20T10:43:55.172Z,4.73
2018-07-20T10:46:24.416Z,5.60
2018-07-20T10:51:31.248Z,4.75
2018-07-20T10:54:00.294Z,5.93
2018-07-20T10:59:06.092Z,4.50
2018-07-20T11:04:11.062Z,6.10
2018-07-20T11:06:42.141Z,5.57
2018-07-20T11:11:48.400Z,6.05
2018-07-20T11:14:17.458Z,5.73
2018-07-20T11:16:46.525Z,8.10
2018-07-20T11:19:15.984Z,4.83
2018-07-20T11:21:45.045Z,4.93
2018-07-20T11:24:19.416Z,9.47
2018-07-20T11:26:48.454Z,6.20
2018-07-20T11:29:17.552Z,9.80
2018-07-20T11:31:47.031Z,4.33
2018-07-20T11:34:16.085Z,5.03
2018-07-20T11:39:20.885Z,5.22
2018-07-20T11:41:49.955Z,4.00
2018-07-20T11:44:19.105Z,4.80
2018-07-20T11:46:52.701Z,5.10
2018-07-20T11:49:23.755Z,4.90
2018-07-20T11:51:52.820Z,5.53
2018-07-20T11:54:21.879Z,4.70
2018-07-20T11:56:50.932Z,4.83
2018-07-20T11:59:20.350Z,6.00
2018-07-20T12:01:53.494Z,12.33
2018-07-20T12:06:58.457Z,6.65
2018-07-20T12:09:27.488Z,8.87
2018-07-20T12:11:56.533Z,6.13
2018-07-20T12:14:25.913Z,5.70
2018-07-20T12:16:54.961Z,5.13
2018-07-20T12:19:24.021Z,6.83
2018-07-20T12:24:30.885Z,4.70
2018-07-20T12:27:00.910Z,4.50
2018-07-20T12:29:30.277Z,5.03
2018-07-20T12:31:59.618Z,6.93
2018-07-20T12:34:28.653Z,6.07
2018-07-20T12:36:57.717Z,4.57
2018-07-20T12:39:27.428Z,5.80
2018-07-20T12:41:56.489Z,4.90
2018-07-20T12:44:25.567Z,4.83
2018-07-20T12:46:54.839Z,5.53
2018-07-20T12:49:26.272Z,4.90
2018-07-20T12:51:59.087Z,6.77
2018-07-20T12:54:30.468Z,4.80
2018-07-20T12:56:59.528Z,5.03
2018-07-20T12:59:28.578Z,4.90
2018-07-20T13:01:57.875Z,5.70
2018-07-20T13:04:26.931Z,5.30
2018-07-20T13:06:57.961Z,5.00
2018-07-20T13:09:27.008Z,5.13
2018-07-20T13:14:32.946Z,6.37
2018-07-20T13:17:02.958Z,5.72
2018-07-20T13:19:32.412Z,5.20
2018-07-20T13:22:02.359Z,5.67
2018-07-20T13:24:31.423Z,5.60
2018-07-20T13:27:00.798Z,5.20
2018-07-20T13:29:31.041Z,5.27
2018-07-20T13:32:00.076Z,5.43
2018-07-20T13:37:04.993Z,5.70
2018-07-20T13:42:09.846Z,5.30
2018-07-20T13:44:40.875Z,6.20
2018-07-20T13:47:09.937Z,5.93
2018-07-20T13:49:39.340Z,5.37
2018-07-20T13:52:08.409Z,5.00
2018-07-20T13:54:45.686Z,6.63
2018-07-20T13:57:20.672Z,10.23
2018-07-20T13:59:51.822Z,5.33
2018-07-20T14:02:20.926Z,4.90
2018-07-20T14:04:51.980Z,6.37
2018-07-20T14:07:21.046Z,6.83
2018-07-20T14:12:27.025Z,5.90
2018-07-20T14:17:36.092Z,5.75
2018-07-20T14:20:05.122Z,5.93
2018-07-20T14:22:34.170Z,6.50
2018-07-20T14:25:03.558Z,5.50
2018-07-20T14:32:46.649Z,6.18
2018-07-20T14:35:15.704Z,8.03
2018-07-20T14:37:45.696Z,6.53
2018-07-20T14:40:17.006Z,6.07
2018-07-20T14:42:46.058Z,5.90
2018-07-20T14:45:15.150Z,6.05
2018-07-20T14:47:48.335Z,21.70
2018-07-20T14:50:21.314Z,6.10
2018-07-20T14:52:58.293Z,17.13
2018-07-20T14:55:28.623Z,7.67
2018-07-20T14:58:00.905Z,6.90
2018-07-20T15:00:32.345Z,12.63
2018-07-20T15:05:39.305Z,9.20
2018-07-20T15:08:08.345Z,6.45
2018-07-20T15:13:13.489Z,7.22
2018-07-20T15:15:46.313Z,6.72
2018-07-20T15:18:16.323Z,6.63
2018-07-20T15:20:45.371Z,6.27
2018-07-20T15:23:15.474Z,6.10
2018-07-20T15:25:45.658Z,5.63
2018-07-20T15:28:14.711Z,5.30
2018-07-20T15:30:44.788Z,5.47
2018-07-20T15:33:13.840Z,5.70
2018-07-20T15:35:43.121Z,5.20
2018-07-20T15:38:12.207Z,5.55
2018-07-20T15:40:42.207Z,7.57
2018-07-20T15:43:12.268Z,5.33
2018-07-20T15:45:51.816Z,5.70
2018-07-20T15:48:11.869Z,6.43
2018-07-20T15:50:40.907Z,5.78
2018-07-20T15:53:37.988Z,5.10
2018-07-20T15:55:41.354Z,5.10
2018-07-20T16:00:46.533Z,6.35
2018-07-20T16:03:15.811Z,5.37
2018-07-20T16:05:44.919Z,5.47
2018-07-20T16:08:13.921Z,5.10
2018-07-20T16:10:43.337Z,5.37
2018-07-20T16:13:12.397Z,5.70
2018-07-20T16:15:42.397Z,5.65
2018-07-20T16:18:11.562Z,5.20
2018-07-20T16:20:41.071Z,11.00
2018-07-20T16:23:10.189Z,5.95
2018-07-20T16:25:39.277Z,5.80
2018-07-20T16:28:09.293Z,12.23
2018-07-20T16:30:43.632Z,7.00
2018-07-20T16:33:13.671Z,10.00
2018-07-20T16:35:42.723Z,6.50
2018-07-20T16:40:48.318Z,6.90
2018-07-20T16:45:54.214Z,5.70
2018-07-20T16:48:23.265Z,8.70
2018-07-20T16:50:52.321Z,5.80
2018-07-20T16:53:21.675Z,7.80
2018-07-20T16:55:50.768Z,6.17
2018-07-20T16:58:20.784Z,6.90
2018-07-20T17:00:49.815Z,7.90
2018-07-20T17:03:20.867Z,7.97
2018-07-20T17:05:51.174Z,11.80
2018-07-20T17:08:20.217Z,7.10
2018-07-20T17:10:49.281Z,7.25
2018-07-20T17:13:18.341Z,10.00
2018-07-20T17:15:47.750Z,7.03
2018-07-20T17:20:54.511Z,8.43
2018-07-20T17:23:24.620Z,7.40
2018-07-20T17:25:55.743Z,10.23
2018-07-20T17:28:24.793Z,7.27
2018-07-20T17:30:53.851Z,6.27
2018-07-20T17:33:22.907Z,6.53
2018-07-20T17:35:55.624Z,6.00
2018-07-20T17:38:26.730Z,8.27
2018-07-20T17:40:57.364Z,12.40
2018-07-20T17:43:26.420Z,7.80
2018-07-20T17:48:32.471Z,16.60
2018-07-20T17:51:01.518Z,9.93
2018-07-20T17:53:32.554Z,15.60
2018-07-20T17:56:01.623Z,7.57
2018-07-20T17:58:30.894Z,8.20
2018-07-20T18:01:00.077Z,7.97
2018-07-20T18:03:31.101Z,8.07
2018-07-20T18:06:00.152Z,8.17
2018-07-20T18:11:09.304Z,7.90
2018-07-20T18:13:38.429Z,7.15
2018-07-20T18:16:07.538Z,8.13
2018-07-20T18:18:36.582Z,7.73
2018-07-20T18:21:05.800Z,8.33
2018-07-20T18:23:34.906Z,8.20
2018-07-20T18:26:03.945Z,8.50
2018-07-20T18:31:08.931Z,8.25
2018-07-20T18:33:38.935Z,9.20
2018-07-20T18:36:07.970Z,8.53
2018-07-20T18:38:37.022Z,19.43
2018-07-20T18:41:06.125Z,9.37
2018-07-20T18:43:35.187Z,9.10
2018-07-20T18:46:04.255Z,8.87
2018-07-20T18:48:33.308Z,9.90
2018-07-20T18:53:40.205Z,7.97
2018-07-20T18:58:44.702Z,8.05
2018-07-20T19:01:13.810Z,8.43
2018-07-20T19:03:43.871Z,9.07
2018-07-20T19:06:13.899Z,10.98
2018-07-20T19:11:18.776Z,15.55
2018-07-20T19:13:49.881Z,14.27
2018-07-20T19:16:18.937Z,8.27
2018-07-20T19:18:47.998Z,8.03
2018-07-20T19:23:52.928Z,8.88
2018-07-20T19:26:21.904Z,6.57
2018-07-20T19:28:50.981Z,7.87
2018-07-20T19:31:20.041Z,7.75
2018-07-20T19:33:49.095Z,7.18
2018-07-20T19:36:18.140Z,7.70
2018-07-20T19:41:23.020Z,8.55
2018-07-20T19:43:52.087Z,7.25
2018-07-20T19:46:22.113Z,7.70
2018-07-20T19:48:51.157Z,6.93
2018-07-20T19:51:20.215Z,7.43
2018-07-20T19:53:49.276Z,7.30
2018-07-20T19:58:54.147Z,6.95
2018-07-20T20:01:23.146Z,7.60
2018-07-20T20:03:53.157Z,8.47
2018-07-20T20:06:22.250Z,7.77
2018-07-20T20:08:51.365Z,7.53
2018-07-20T20:11:20.433Z,8.00
2018-07-20T20:13:49.477Z,7.87
2018-07-20T20:16:18.540Z,7.90
2018-07-20T20:21:23.334Z,9.70
2018-07-20T20:26:36.567Z,7.90
2018-07-20T20:29:06.570Z,8.73
2018-07-20T20:31:35.625Z,8.27
2018-07-20T20:34:05.608Z,8.53
2018-07-20T20:36:35.623Z,9.50
2018-07-20T20:39:05.638Z,7.90
2018-07-20T20:41:34.834Z,8.80
2018-07-20T20:44:04.874Z,8.30
2018-07-20T20:46:33.933Z,8.63
2018-07-20T20:49:02.991Z,9.50
2018-07-20T20:51:32.068Z,9.23
2018-07-20T20:54:01.106Z,7.93
2018-07-20T20:56:30.321Z,10.03
2018-07-20T20:58:59.444Z,8.67
2018-07-20T21:01:29.378Z,8.82
2018-07-20T21:03:58.424Z,11.70
2018-07-20T21:06:27.491Z,10.10
2018-07-20T21:08:56.562Z,11.57
2018-07-20T21:11:25.624Z,12.73
2018-07-20T21:13:54.710Z,12.00
2018-07-20T21:16:24.701Z,12.13
2018-07-20T21:18:54.732Z,12.63
2018-07-20T21:21:23.821Z,14.37
2018-07-20T21:23:54.858Z,13.73
2018-07-20T21:26:23.930Z,15.57
2018-07-20T21:28:53.047Z,15.70
2018-07-20T21:33:57.887Z,17.00
2018-07-20T21:36:28.859Z,16.62
2018-07-20T21:38:57.921Z,13.27
2018-07-20T21:41:26.981Z,14.47
2018-07-20T21:43:56.051Z,14.87
2018-07-20T21:46:26.084Z,15.00
2018-07-20T21:48:58.249Z,14.63
2018-07-20T21:51:27.305Z,14.93
2018-07-20T21:53:56.414Z,14.70
2018-07-20T21:56:25.534Z,14.20
2018-07-20T21:58:54.733Z,12.70
2018-07-20T22:01:24.775Z,13.00
2018-07-20T22:03:57.358Z,15.00
2018-07-20T22:06:28.394Z,15.30
2018-07-20T22:08:57.453Z,15.43
2018-07-20T22:11:26.530Z,15.17
2018-07-20T22:13:55.601Z,16.90
2018-07-20T22:16:29.783Z,20.87
2018-07-20T22:18:58.842Z,18.80
2018-07-20T22:21:27.911Z,21.20
2018-07-20T22:23:56.980Z,24.50
2018-07-20T22:26:26.046Z,19.27
2018-07-20T22:28:56.118Z,19.40
2018-07-20T22:31:25.192Z,24.90
2018-07-20T22:33:54.274Z,21.93
2018-07-20T22:36:23.374Z,21.70
2018-07-20T22:38:52.449Z,21.47
2018-07-20T22:41:21.598Z,18.97
2018-07-20T22:43:50.638Z,17.67
2018-07-20T22:46:20.654Z,23.40
2018-07-20T22:48:52.905Z,17.70
2018-07-20T22:51:22.937Z,18.33
2018-07-20T22:53:52.957Z,18.90
2018-07-20T22:56:24.001Z,17.60
2018-07-20T22:58:53.067Z,16.60
2018-07-20T23:01:27.122Z,17.47
2018-07-20T23:03:56.187Z,15.80
2018-07-20T23:09:01.489Z,18.53
2018-07-20T23:11:31.490Z,16.92
2018-07-20T23:14:01.507Z,14.03
2018-07-20T23:16:30.571Z,14.27
2018-07-20T23:18:59.630Z,12.90
2018-07-20T23:21:28.710Z,12.60
2018-07-20T23:23:57.773Z,12.30
2018-07-20T23:26:26.849Z,11.37
2018-07-20T23:28:55.922Z,12.50
2018-07-20T23:36:36.621Z,10.37
2018-07-20T23:39:06.641Z,9.80
2018-07-20T23:41:35.726Z,8.70
2018-07-20T23:44:04.805Z,8.23
2018-07-20T23:46:33.881Z,8.77
2018-07-20T23:49:02.921Z,7.37
2018-07-20T23:54:07.691Z,9.43
2018-07-20T23:56:36.777Z,7.90
2018-07-20T23:59:06.781Z,7.93
